<?xml version="1.0" encoding="UTF-8" standalone="no" ?>
<gpx xmlns="http://www.topografix.com/GPX/1/1" xmlns:xsi="http://www.w3.org/2001/XMLSchema-instance" xsi:schemaLocation="http://www.topografix.com/GPX/1/1 http://www.topografix.com/GPX/1/1/gpx.xsd" version="1.1" creator="VisuGPX - https://www.visugpx.com">
  <metadata>
    <name>Iles de Lérins</name>
  </metadata>
  <trk>
    <name><![CDATA[13772044-Iles de Lérins]]></name>
    <trkseg>
      <trkpt lat="43.5358" lon="7.03869">
        <ele>2</ele>
        <time>2021-09-30T18:36:59Z</time>
      </trkpt>
      <trkpt lat="43.52489" lon="7.04401">
        <time>2021-09-30T18:52:26Z</time>
      </trkpt>
      <trkpt lat="43.52411" lon="7.04989">
        <time>2021-09-30T18:58:13Z</time>
      </trkpt>
      <trkpt lat="43.52146" lon="7.05581">
        <ele>1</ele>
        <time>2021-09-30T19:04:56Z</time>
      </trkpt>
      <trkpt lat="43.52167" lon="7.06299">
        <time>2021-09-30T19:11:54Z</time>
      </trkpt>
      <trkpt lat="43.51947" lon="7.07115">
        <time>2021-09-30T19:20:19Z</time>
      </trkpt>
      <trkpt lat="43.51756" lon="7.07151">
        <time>2021-09-30T19:22:53Z</time>
      </trkpt>
      <trkpt lat="43.5162" lon="7.07209">
        <time>2021-09-30T19:24:47Z</time>
      </trkpt>
      <trkpt lat="43.51413" lon="7.0687">
        <time>2021-09-30T19:29:05Z</time>
      </trkpt>
      <trkpt lat="43.51251" lon="7.05942">
        <time>2021-09-30T19:38:19Z</time>
      </trkpt>
      <trkpt lat="43.50971" lon="7.05256">
        <time>2021-09-30T19:45:56Z</time>
      </trkpt>
      <trkpt lat="43.50851" lon="7.05534">
        <time>2021-09-30T19:49:04Z</time>
      </trkpt>
      <trkpt lat="43.50725" lon="7.05823">
        <time>2021-09-30T19:52:20Z</time>
      </trkpt>
      <trkpt lat="43.50626" lon="7.06036">
        <time>2021-09-30T19:54:47Z</time>
      </trkpt>
      <trkpt lat="43.50542" lon="7.05693">
        <time>2021-09-30T19:58:17Z</time>
      </trkpt>
      <trkpt lat="43.50628" lon="7.05448">
        <time>2021-09-30T20:00:55Z</time>
      </trkpt>
      <trkpt lat="43.50581" lon="7.04968">
        <time>2021-09-30T20:05:36Z</time>
      </trkpt>
      <trkpt lat="43.50478" lon="7.04841">
        <ele>1</ele>
        <time>2021-09-30T20:07:27Z</time>
      </trkpt>
      <trkpt lat="43.50453" lon="7.04622">
        <time>2021-09-30T20:09:36Z</time>
      </trkpt>
      <trkpt lat="43.50545" lon="7.04654">
        <ele>2</ele>
        <time>2021-09-30T20:10:52Z</time>
      </trkpt>
      <trkpt lat="43.50576" lon="7.04362">
        <ele>1</ele>
        <time>2021-09-30T20:13:43Z</time>
      </trkpt>
      <trkpt lat="43.50596" lon="7.04145">
        <ele>1</ele>
        <time>2021-09-30T20:15:50Z</time>
      </trkpt>
      <trkpt lat="43.50644" lon="7.03907">
        <ele>1</ele>
        <time>2021-09-30T20:18:14Z</time>
      </trkpt>
      <trkpt lat="43.50703" lon="7.03703">
        <ele>1.7</ele>
        <time>2021-09-30T20:20:21Z</time>
      </trkpt>
      <trkpt lat="43.50877" lon="6.94106">
        <ele>4</ele>
        <time>2021-09-30T21:53:16Z</time>
      </trkpt>
    </trkseg>
  </trk>
</gpx>